Time;durP1;ratioP1;P1;durP2;ratioP2;P2;SDS_P1;SDS_P2;PMS_P1;PMS_P2;Temp;Humidity;BMP_temperature;BMP_pressure;BME280_temperature;BME280_humidity;BME280_pressure;Samples;Min_cycle;Max_cycle;Signal;HPM_P1;HPM_P2
2021/08/22 00:01:51;;;;;;;;;;;;;;;26.59;64.29;101200.44;5090653;28;1137;-69
2021/08/22 00:04:18;;;;;;;;;;;;;;;26.59;64.32;101200.44;5090998;28;1168;-69
2021/08/22 00:06:45;;;;;;;;;;;;;;;26.59;64.31;101197.78;5108793;28;1273;-68
2021/08/22 00:09:11;;;;;;;;;;;;;;;26.60;64.14;101204.78;5090639;28;1063;-69
2021/08/22 00:11:38;;;;;;;;;;;;;;;26.59;64.47;101194.25;5109209;28;1258;-69
2021/08/22 00:14:05;;;;;;;;;;;;;;;26.60;64.33;101196.78;5124216;27;1135;-68
2021/08/22 00:16:32;;;;;;;;;;;;;;;26.59;64.24;101200.44;5108791;28;1200;-68
2021/08/22 00:18:58;;;;;;;;;;;;;;;26.61;64.21;101197.63;5108734;28;1925;-68
2021/08/22 00:21:25;;;;;;;;;;;;;;;26.61;64.62;101200.31;5108151;28;1334;-68
2021/08/22 00:23:52;;;;;;;;;;;;;;;26.60;64.39;101204.78;5108352;28;1117;-67
2021/08/22 00:26:18;;;;;;;;;;;;;;;26.61;64.36;101203.81;5108567;28;1235;-68
2021/08/22 00:28:45;;;;;;;;;;;;;;;26.61;64.46;101192.28;5108347;28;1074;-67
2021/08/22 00:31:12;;;;;;;;;;;;;;;26.58;64.86;101190.72;5089922;28;1193;-68
2021/08/22 00:33:39;;;;;;;;;;;;;;;26.63;64.61;101197.53;5089771;28;1147;-68
2021/08/22 00:36:05;;;;;;;;;;;;;;;26.63;64.79;101200.19;5108127;28;1220;-68
2021/08/22 00:38:33;;;;;;;;;;;;;;;26.61;64.62;101198.47;5108232;28;1045;-69
2021/08/22 00:41:01;;;;;;;;;;;;;;;26.61;64.44;101201.16;5089997;28;1941;-67
2021/08/22 00:43:31;;;;;;;;;;;;;;;26.61;64.64;101193.13;5108484;28;1076;-67
2021/08/22 00:45:58;;;;;;;;;;;;;;;26.63;64.40;101194.84;5107353;28;1334;-68
2021/08/22 00:48:28;;;;;;;;;;;;;;;26.63;64.54;101190.31;5089833;28;1067;-68
2021/08/22 00:50:56;;;;;;;;;;;;;;;26.61;64.54;101193.13;5089859;28;1240;-68
2021/08/22 00:53:22;;;;;;;;;;;;;;;26.63;64.66;101189.50;5108086;28;1042;-67
2021/08/22 00:55:49;;;;;;;;;;;;;;;26.63;64.55;101200.19;5107797;28;1294;-67
2021/08/22 00:58:16;;;;;;;;;;;;;;;26.63;64.42;101195.66;5108163;28;1023;-67
2021/08/22 01:00:43;;;;;;;;;;;;;;;26.65;64.31;101192.88;5107673;28;1914;-68
2021/08/22 01:03:17;;;;;;;;;;;;;;;26.64;64.21;101194.69;5108267;28;1042;-67
2021/08/22 01:06:06;;;;;;;;;;;;;;;26.63;64.27;101196.53;5108157;28;1308;-68
2021/08/22 01:08:40;;;;;;;;;;;;;;;26.64;64.58;101197.38;5108083;28;1033;-67
2021/08/22 01:11:17;;;;;;;;;;;;;;;26.63;64.60;101198.34;5089531;28;1316;-68
2021/08/22 01:13:48;;;;;;;;;;;;;;;26.63;64.15;101194.84;5107757;28;1123;-68
2021/08/22 01:16:16;;;;;;;;;;;;;;;26.63;64.49;101199.19;5107733;28;1267;-67
2021/08/22 01:18:45;;;;;;;;;;;;;;;26.63;64.06;101199.19;5107885;28;1108;-68
2021/08/22 01:21:13;;;;;;;;;;;;;;;26.63;64.35;101201.88;5106612;28;1971;-68
2021/08/22 01:23:43;;;;;;;;;;;;;;;26.63;64.22;101193.00;5107666;28;923;-68
2021/08/22 01:26:11;;;;;;;;;;;;;;;26.63;64.22;101196.53;5089361;28;1337;-68
2021/08/22 01:28:39;;;;;;;;;;;;;;;26.63;64.71;101191.19;5107864;28;888;-68
2021/08/22 01:31:08;;;;;;;;;;;;;;;26.65;64.67;101192.88;5089488;28;1270;-66
2021/08/22 01:33:36;;;;;;;;;;;;;;;26.65;64.45;101192.88;5089652;28;1068;-67
2021/08/22 01:36:03;;;;;;;;;;;;;;;26.63;64.36;101196.53;5107599;28;1333;-67
2021/08/22 01:38:30;;;;;;;;;;;;;;;26.60;64.35;101191.44;5107827;28;1105;-67
2021/08/22 01:40:57;;;;;;;;;;;;;;;26.66;64.40;101205.28;5107787;28;1914;-67
2021/08/22 01:43:24;;;;;;;;;;;;;;;26.65;64.23;101198.22;5089223;28;1392;-68
2021/08/22 01:45:56;;;;;;;;;;;;;;;26.64;64.45;101189.38;5088847;28;1275;-68
2021/08/22 01:48:24;;;;;;;;;;;;;;;26.65;64.48;101199.09;5107645;28;1038;-69
2021/08/22 01:50:58;;;;;;;;;;;;;;;26.66;64.20;101205.28;5107925;28;1216;-68
2021/08/22 01:53:25;;;;;;;;;;;;;;;26.66;64.25;101202.59;5107670;28;1075;-69
2021/08/22 01:55:53;;;;;;;;;;;;;;;26.66;64.22;101202.59;5109608;28;1215;-67
2021/08/22 01:58:24;;;;;;;;;;;;;;;26.63;64.57;101204.53;5111416;28;1057;-67
2021/08/22 02:00:51;;;;;;;;;;;;;;;26.66;64.42;101197.25;5092819;28;2017;-68
2021/08/22 02:03:22;;;;;;;;;;;;;;;26.64;64.41;101202.72;5106552;28;1163;-68
2021/08/22 02:05:51;;;;;;;;;;;;;;;26.66;64.52;101202.59;5110621;28;1373;-67
2021/08/22 02:08:19;;;;;;;;;;;;;;;26.66;64.41;101199.94;5130376;27;1273;-68
2021/08/22 02:10:54;;;;;;;;;;;;;;;26.67;64.29;101206.97;5111276;28;1333;-68
2021/08/22 02:13:24;;;;;;;;;;;;;;;26.66;64.19;101199.94;5109240;28;1142;-68
2021/08/22 02:15:52;;;;;;;;;;;;;;;26.67;64.27;101204.28;5111446;28;1235;-69
2021/08/22 02:18:19;;;;;;;;;;;;;;;26.65;64.43;101198.22;5110616;28;999;-68
2021/08/22 02:20:46;;;;;;;;;;;;;;;26.66;64.17;101205.28;5110740;28;1934;-67
2021/08/22 02:23:13;;;;;;;;;;;;;;;26.66;64.26;101211.44;5110603;28;1134;-67
2021/08/22 02:25:41;;;;;;;;;;;;;;;26.67;64.14;101212.31;5110548;28;1235;-67
2021/08/22 02:28:07;;;;;;;;;;;;;;;26.66;64.29;101213.28;5110537;28;1136;-66
2021/08/22 02:30:35;;;;;;;;;;;;;;;26.65;64.28;101217.78;5110827;28;1318;-68
2021/08/22 02:33:05;;;;;;;;;;;;;;;26.67;64.39;101212.31;5105973;28;1294;-68
2021/08/22 02:35:33;;;;;;;;;;;;;;;26.67;64.19;101214.97;5110618;28;1354;-67
2021/08/22 02:38:00;;;;;;;;;;;;;;;26.67;64.26;101212.31;5110334;28;1241;-67
2021/08/22 02:40:26;;;;;;;;;;;;;;;26.66;64.10;101215.97;5110300;28;1909;-67
2021/08/22 02:42:53;;;;;;;;;;;;;;;26.67;64.27;101225.66;5110331;28;1027;-67
2021/08/22 02:45:20;;;;;;;;;;;;;;;26.66;64.11;101223.97;5103302;28;1357;-68
2021/08/22 02:47:48;;;;;;;;;;;;;;;26.67;64.16;101218.50;5125181;27;1016;-67
2021/08/22 02:50:15;;;;;;;;;;;;;;;26.66;64.20;101222.13;5091654;28;1509;-67
2021/08/22 02:52:41;;;;;;;;;;;;;;;26.66;64.30;101215.97;5109947;28;996;-67
2021/08/22 02:55:08;;;;;;;;;;;;;;;26.66;63.82;101218.66;5108704;28;1293;-67
2021/08/22 02:57:35;;;;;;;;;;;;;;;26.67;64.10;101218.50;5109614;28;963;-67
2021/08/22 03:00:03;;;;;;;;;;;;;;;26.66;63.95;101215.97;5122946;27;1910;-67
2021/08/22 03:02:30;;;;;;;;;;;;;;;26.66;64.03;101214.13;5109315;28;1204;-67
2021/08/22 03:04:57;;;;;;;;;;;;;;;26.66;64.03;101215.97;5109966;28;1087;-67
2021/08/22 03:07:23;;;;;;;;;;;;;;;26.66;64.25;101218.66;5090252;28;1295;-67
2021/08/22 03:09:50;;;;;;;;;;;;;;;26.66;64.04;101219.47;5091165;28;1432;-67
2021/08/22 03:12:17;;;;;;;;;;;;;;;26.68;63.96;101219.34;5091068;28;1401;-68
2021/08/22 03:14:44;;;;;;;;;;;;;;;26.67;64.09;101223.00;5105585;28;1046;-68
2021/08/22 03:17:11;;;;;;;;;;;;;;;26.67;63.81;101217.66;5125203;27;1235;-67
2021/08/22 03:19:37;;;;;;;;;;;;;;;26.67;64.05;101220.31;5109410;28;1921;-67
2021/08/22 03:22:04;;;;;;;;;;;;;;;26.66;63.89;101211.44;5110213;28;1215;-67
2021/08/22 03:24:31;;;;;;;;;;;;;;;26.63;63.94;101208.22;5095572;28;1074;-67
2021/08/22 03:26:59;;;;;;;;;;;;;;;26.67;63.87;101212.31;5109863;28;1251;-67
2021/08/22 03:29:26;;;;;;;;;;;;;;;26.67;63.78;101214.97;5107718;28;1183;-67
2021/08/22 03:31:52;;;;;;;;;;;;;;;26.66;63.97;101227.47;5107924;28;1424;-67
2021/08/22 03:34:20;;;;;;;;;;;;;;;26.67;64.00;101223.00;5109310;28;1400;-67
2021/08/22 03:36:46;;;;;;;;;;;;;;;26.66;63.81;101221.31;5107474;28;1342;-67
2021/08/22 03:39:13;;;;;;;;;;;;;;;26.66;64.04;101224.81;5109244;28;1134;-67
2021/08/22 03:41:40;;;;;;;;;;;;;;;26.67;64.09;101217.66;5127153;27;1913;-68
2021/08/22 03:44:08;;;;;;;;;;;;;;;26.68;64.04;101219.34;5110432;27;1069;-68
2021/08/22 03:46:35;;;;;;;;;;;;;;;26.67;64.12;101221.16;5128971;27;1223;-66
2021/08/22 03:49:02;;;;;;;;;;;;;;;26.67;63.72;101221.16;5110905;27;1293;-67
2021/08/22 03:51:28;;;;;;;;;;;;;;;26.68;64.18;101227.38;5129875;27;1216;-68
2021/08/22 03:53:55;;;;;;;;;;;;;;;26.68;64.04;101222.03;5130058;27;1023;-68
2021/08/22 03:56:22;;;;;;;;;;;;;;;26.67;63.95;101228.34;5111211;27;1257;-68
2021/08/22 03:58:49;;;;;;;;;;;;;;;26.68;63.88;101222.88;5110485;27;1401;-68
2021/08/22 04:01:15;;;;;;;;;;;;;;;26.68;63.87;101227.38;5129100;27;1984;-68
2021/08/22 04:03:43;;;;;;;;;;;;;;;26.68;64.08;101225.56;5129782;27;1025;-66
2021/08/22 04:06:10;;;;;;;;;;;;;;;26.68;63.76;101230.03;5094163;27;1410;-67
2021/08/22 04:08:39;;;;;;;;;;;;;;;26.67;64.00;101229.19;5129858;27;876;-67
2021/08/22 04:11:06;;;;;;;;;;;;;;;26.67;64.04;101218.50;5129505;27;1322;-68
2021/08/22 04:13:33;;;;;;;;;;;;;;;26.68;64.14;101222.03;5129971;27;1127;-67
2021/08/22 04:16:00;;;;;;;;;;;;;;;26.69;64.08;101226.41;5111340;27;1270;-67
2021/08/22 04:18:27;;;;;;;;;;;;;;;26.68;64.02;101230.91;5129050;27;1013;-67
2021/08/22 04:20:54;;;;;;;;;;;;;;;26.68;63.81;101222.88;5129410;27;1913;-67
2021/08/22 04:23:20;;;;;;;;;;;;;;;26.69;64.11;101231.75;5129350;27;1047;-67
2021/08/22 04:25:47;;;;;;;;;;;;;;;26.68;63.94;101225.56;5129419;27;1322;-68
2021/08/22 04:28:14;;;;;;;;;;;;;;;26.68;64.06;101233.56;5110591;27;1693;-68
2021/08/22 04:30:40;;;;;;;;;;;;;;;26.67;63.92;101226.50;5128879;27;1329;-68
2021/08/22 04:33:07;;;;;;;;;;;;;;;26.68;63.83;101236.25;5129583;27;1124;-68
2021/08/22 04:35:34;;;;;;;;;;;;;;;26.68;63.70;101232.72;5129382;27;1295;-68
2021/08/22 04:38:01;;;;;;;;;;;;;;;26.68;64.02;101230.91;5110540;27;1140;-68
2021/08/22 04:40:28;;;;;;;;;;;;;;;26.70;63.97;101238.78;5128569;27;2008;-68
2021/08/22 04:42:55;;;;;;;;;;;;;;;26.69;63.69;101234.41;5129151;27;850;-68
2021/08/22 04:45:22;;;;;;;;;;;;;;;26.68;63.54;101225.56;5129467;27;1204;-68
2021/08/22 04:47:49;;;;;;;;;;;;;;;26.69;63.65;101234.41;5128701;27;758;-68
2021/08/22 04:50:16;;;;;;;;;;;;;;;26.69;63.52;101237.09;5127673;27;1278;-67
2021/08/22 04:52:43;;;;;;;;;;;;;;;26.69;63.52;101239.75;5110652;27;900;-67
2021/08/22 04:55:10;;;;;;;;;;;;;;;26.69;63.60;101239.75;5109421;27;1366;-67
2021/08/22 04:57:36;;;;;;;;;;;;;;;26.69;63.30;101237.09;5128777;27;786;-67
2021/08/22 05:00:04;;;;;;;;;;;;;;;26.69;63.17;101232.56;5129012;27;1987;-67
2021/08/22 05:02:31;;;;;;;;;;;;;;;26.70;63.24;101238.78;5128873;27;1315;-67
2021/08/22 05:04:58;;;;;;;;;;;;;;;26.69;63.32;101237.09;5129226;27;989;-68
2021/08/22 05:07:25;;;;;;;;;;;;;;;26.68;62.90;101241.59;5109946;27;1321;-68
2021/08/22 05:09:52;;;;;;;;;;;;;;;26.68;63.02;101240.72;5110234;27;1170;-67
2021/08/22 05:12:19;;;;;;;;;;;;;;;26.68;63.10;101240.72;5109967;27;1300;-68
2021/08/22 05:14:45;;;;;;;;;;;;;;;26.68;62.98;101243.41;5110176;27;1048;-67
2021/08/22 05:17:12;;;;;;;;;;;;;;;26.68;62.89;101246.06;5127009;27;1446;-67
2021/08/22 05:19:39;;;;;;;;;;;;;;;26.68;62.92;101252.28;5128901;27;1111;-68
2021/08/22 05:22:06;;;;;;;;;;;;;;;26.69;62.66;101259.28;5118023;27;2000;-67
2021/08/22 05:24:33;;;;;;;;;;;;;;;26.68;62.75;101259.44;5107858;28;1572;-68
2021/08/22 05:26:59;;;;;;;;;;;;;;;26.69;62.67;101253.13;5072391;28;1423;-68
2021/08/22 05:29:30;;;;;;;;;;;;;;;26.68;62.44;101254.09;5091196;28;1273;-68
2021/08/22 05:32:01;;;;;;;;;;;;;;;26.68;62.63;101254.09;5112093;28;1342;-68
2021/08/22 05:34:28;;;;;;;;;;;;;;;26.68;62.16;101259.44;5112513;28;1117;-68
2021/08/22 05:36:55;;;;;;;;;;;;;;;26.68;62.19;101256.75;5111987;28;1224;-68
2021/08/22 05:39:22;;;;;;;;;;;;;;;26.68;62.25;101259.44;5093597;28;1313;-67
2021/08/22 05:41:50;;;;;;;;;;;;;;;26.68;62.53;101264.78;5111475;28;1909;-67
2021/08/22 05:44:17;;;;;;;;;;;;;;;26.68;62.06;101267.44;5093472;28;1127;-67
2021/08/22 05:46:43;;;;;;;;;;;;;;;26.67;62.19;101271.09;5093519;28;1310;-67
2021/08/22 05:49:10;;;;;;;;;;;;;;;26.68;62.21;101275.47;5111710;28;1119;-67
2021/08/22 05:51:37;;;;;;;;;;;;;;;26.67;62.21;101273.75;5111920;28;1224;-67
2021/08/22 05:54:04;;;;;;;;;;;;;;;26.67;61.84;101279.09;5111879;28;1062;-67
2021/08/22 05:56:30;;;;;;;;;;;;;;;26.67;61.88;101281.78;5111437;28;1255;-67
2021/08/22 05:58:57;;;;;;;;;;;;;;;26.68;62.04;101288.81;5111470;28;1033;-66
2021/08/22 06:01:26;;;;;;;;;;;;;;;26.67;62.12;101282.63;5111207;28;1913;-68
2021/08/22 06:03:53;;;;;;;;;;;;;;;26.66;61.96;101286.25;5111603;28;1334;-67
2021/08/22 06:06:20;;;;;;;;;;;;;;;26.67;61.99;101287.97;5093048;28;1330;-68
2021/08/22 06:08:47;;;;;;;;;;;;;;;26.62;61.82;101279.50;5111463;28;1024;-68
2021/08/22 06:11:14;;;;;;;;;;;;;;;26.67;62.02;101295.13;5092809;28;1390;-68
2021/08/22 06:13:41;;;;;;;;;;;;;;;26.67;62.02;101293.31;5093007;28;902;-68
2021/08/22 06:16:08;;;;;;;;;;;;;;;26.66;61.70;101286.25;5111195;28;1219;-67
2021/08/22 06:18:39;;;;;;;;;;;;;;;26.67;61.78;101284.44;5111218;28;1054;-68
2021/08/22 06:21:06;;;;;;;;;;;;;;;26.67;61.70;101287.97;5111349;28;1969;-69
2021/08/22 06:23:33;;;;;;;;;;;;;;;26.67;61.76;101287.97;5111303;28;953;-67
2021/08/22 06:25:59;;;;;;;;;;;;;;;26.67;61.62;101287.13;5111146;28;1303;-67
2021/08/22 06:28:27;;;;;;;;;;;;;;;26.67;61.75;101289.78;5075109;28;1405;-68
2021/08/22 06:30:53;;;;;;;;;;;;;;;26.66;61.59;101294.28;5110649;28;1302;-68
2021/08/22 06:33:20;;;;;;;;;;;;;;;26.66;61.80;101291.59;5092390;28;1052;-68
2021/08/22 06:35:47;;;;;;;;;;;;;;;26.67;61.60;101292.47;5092355;28;1172;-67
2021/08/22 06:38:19;;;;;;;;;;;;;;;26.67;61.52;101295.13;5110635;28;936;-67
2021/08/22 06:40:45;;;;;;;;;;;;;;;26.66;61.61;101294.28;5110277;28;1913;-68
2021/08/22 06:43:12;;;;;;;;;;;;;;;26.66;61.63;101296.13;5092444;28;1039;-68
2021/08/22 06:45:40;;;;;;;;;;;;;;;26.67;61.79;101297.81;5110961;28;1341;-68
2021/08/22 06:48:07;;;;;;;;;;;;;;;26.67;61.92;101303.16;5111096;28;1042;-68
2021/08/22 06:50:35;;;;;;;;;;;;;;;26.72;61.57;101299.13;5110690;28;1220;-68
2021/08/22 06:53:01;;;;;;;;;;;;;;;26.68;61.83;101300.38;5109889;28;1651;-68
2021/08/22 06:55:29;;;;;;;;;;;;;;;26.67;61.66;101306.69;5092084;28;1161;-67
2021/08/22 06:57:55;;;;;;;;;;;;;;;26.67;61.79;101308.50;5091179;28;1351;-68
2021/08/22 07:00:22;;;;;;;;;;;;;;;26.67;61.69;101309.34;5110906;28;1918;-66
2021/08/22 07:02:49;;;;;;;;;;;;;;;26.66;59.89;101312.16;5110404;28;775;-70
2021/08/22 07:05:17;;;;;;;;;;;;;;;26.61;58.85;101304.50;5091803;28;1436;-70
2021/08/22 07:07:44;;;;;;;;;;;;;;;26.57;58.11;101303.91;5109671;28;832;-71
2021/08/22 07:10:11;;;;;;;;;;;;;;;26.53;57.65;101313.16;5108059;28;1260;-69
2021/08/22 07:12:38;;;;;;;;;;;;;;;26.53;57.62;101317.66;5109285;28;1099;-69
2021/08/22 07:15:05;;;;;;;;;;;;;;;26.55;58.13;101318.38;5109454;28;1079;-69
2021/08/22 07:17:31;;;;;;;;;;;;;;;26.51;58.32;101319.56;5109465;28;1168;-71
2021/08/22 07:19:58;;;;;;;;;;;;;;;26.50;58.12;101315.22;5109765;28;1014;-72
2021/08/22 07:22:29;;;;;;;;;;;;;;;26.48;57.80;101326.03;5124742;27;1914;-66
2021/08/22 07:24:58;;;;;;;;;;;;;;;26.46;58.46;101319.97;5109283;28;999;-66
2021/08/22 07:27:25;;;;;;;;;;;;;;;26.44;59.27;101324.59;5108956;28;1223;-68
2021/08/22 07:29:52;;;;;;;;;;;;;;;26.44;58.83;101318.41;5108789;28;1497;-67
2021/08/22 07:32:19;;;;;;;;;;;;;;;26.46;59.01;101322.63;5108761;28;1296;-68
2021/08/22 07:34:46;;;;;;;;;;;;;;;26.51;59.19;101325.78;5109152;28;1131;-69
2021/08/22 07:37:13;;;;;;;;;;;;;;;26.54;59.20;101313.97;5106825;28;1176;-69
2021/08/22 07:39:40;;;;;;;;;;;;;;;26.56;59.47;101317.41;5090115;28;1136;-68
2021/08/22 07:42:06;;;;;;;;;;;;;;;26.54;58.93;101319.31;5108564;28;1910;-65
2021/08/22 07:44:33;;;;;;;;;;;;;;;26.51;59.66;101323.09;5109267;28;1052;-67
2021/08/22 07:47:00;;;;;;;;;;;;;;;26.52;59.58;101318.63;5109340;28;1239;-68
2021/08/22 07:49:29;;;;;;;;;;;;;;;26.50;59.64;101318.75;5108051;28;1213;-69
2021/08/22 07:51:55;;;;;;;;;;;;;;;26.52;59.96;101316.78;5108350;28;1294;-68
2021/08/22 07:54:22;;;;;;;;;;;;;;;26.52;60.06;101319.47;5109647;28;1151;-68
2021/08/22 07:56:49;;;;;;;;;;;;;;;26.52;59.97;101319.47;5108909;28;1290;-65
2021/08/22 07:59:16;;;;;;;;;;;;;;;26.61;60.04;101321.41;5109621;28;998;-61
2021/08/22 08:01:43;;;;;;;;;;;;;;;26.55;60.22;101327.22;5107993;28;1925;-61
2021/08/22 08:04:10;;;;;;;;;;;;;;;26.53;60.31;101333.69;5109299;28;1095;-62
2021/08/22 08:06:37;;;;;;;;;;;;;;;26.53;60.36;101325.66;5108798;28;1228;-61
2021/08/22 08:09:04;;;;;;;;;;;;;;;26.56;60.14;101318.25;5108786;28;1120;-61
2021/08/22 08:11:31;;;;;;;;;;;;;;;26.55;60.11;101326.38;5109092;28;1234;-62
2021/08/22 08:13:58;;;;;;;;;;;;;;;26.55;60.52;101321.88;5090235;28;1264;-62
2021/08/22 08:16:25;;;;;;;;;;;;;;;26.63;59.77;101319.44;5108309;28;1208;-63
2021/08/22 08:18:51;;;;;;;;;;;;;;;26.67;59.81;101313.84;5108681;28;1083;-63
2021/08/22 08:21:18;;;;;;;;;;;;;;;26.66;60.02;101321.00;5090241;28;1925;-61
2021/08/22 08:23:57;;;;;;;;;;;;;;;26.63;59.90;101328.44;5108843;28;1003;-61
2021/08/22 08:26:23;;;;;;;;;;;;;;;26.68;59.65;101326.25;5108280;28;1184;-59
2021/08/22 08:28:50;;;;;;;;;;;;;;;26.67;59.70;101329.88;5107083;28;1316;-60
2021/08/22 08:31:17;;;;;;;;;;;;;;;26.65;59.65;101329.16;5108627;28;1353;-60
2021/08/22 08:33:48;;;;;;;;;;;;;;;26.65;59.86;101326.50;5141381;27;1069;-60
2021/08/22 08:36:15;;;;;;;;;;;;;;;26.67;59.53;101324.53;5106518;28;1338;-61
2021/08/22 08:38:41;;;;;;;;;;;;;;;26.76;59.44;101334.47;5141120;27;1246;-62
2021/08/22 08:41:08;;;;;;;;;;;;;;;26.77;59.27;101331.69;5119009;27;1905;-63
2021/08/22 08:43:35;;;;;;;;;;;;;;;26.74;60.05;101337.28;5128634;27;907;-63
2021/08/22 08:46:02;;;;;;;;;;;;;;;26.84;59.35;101342.75;5143955;27;1240;-63
2021/08/22 08:48:39;;;;;;;;;;;;;;;26.87;59.57;101343.34;5108739;27;1666;-60
2021/08/22 08:51:09;;;;;;;;;;;;;;;26.85;59.57;101347.13;5129083;27;1499;-63
2021/08/22 08:53:56;;;;;;;;;;;;;;;26.88;59.54;101338.84;5128995;27;929;-64
2021/08/22 08:56:27;;;;;;;;;;;;;;;26.88;59.47;101341.50;5110587;27;1269;-64
2021/08/22 08:58:53;;;;;;;;;;;;;;;26.80;59.69;101338.63;5129058;27;1154;-63
2021/08/22 09:01:20;;;;;;;;;;;;;;;26.88;59.79;101341.50;5128760;27;1914;-63
2021/08/22 09:04:06;;;;;;;;;;;;;;;26.82;60.09;101344.69;5128973;27;1048;-69
2021/08/22 09:06:53;;;;;;;;;;;;;;;26.90;60.04;101342.25;5109919;27;1345;-63
2021/08/22 09:09:41;;;;;;;;;;;;;;;26.85;60.58;101339.09;5110660;27;1097;-64
2021/08/22 09:12:10;;;;;;;;;;;;;;;26.79;60.39;101345.75;5128216;27;1306;-64
2021/08/22 09:14:56;;;;;;;;;;;;;;;26.87;60.25;101347.88;5129137;27;904;-62
2021/08/22 09:17:30;;;;;;;;;;;;;;;26.84;60.86;101340.09;5128659;27;1290;-60
2021/08/22 09:20:25;;;;;;;;;;;;;;;26.94;60.19;101351.72;5114683;27;1382;-65
2021/08/22 09:23:12;;;;;;;;;;;;;;;26.81;60.60;101349.19;5107770;27;1905;-66
2021/08/22 09:26:00;;;;;;;;;;;;;;;26.58;64.36;101358.19;5123511;28;1338;-68
2021/08/22 09:28:43;;;;;;;;;;;;;;;26.04;70.60;101360.72;5107702;28;1545;-67
2021/08/22 09:31:32;;;;;;;;;;;;;;;25.89;70.81;101364.59;5106566;28;1255;-67
2021/08/22 09:34:17;;;;;;;;;;;;;;;25.90;69.48;101360.97;5107236;28;1134;-67
2021/08/22 09:37:03;;;;;;;;;;;;;;;25.82;70.01;101363.34;5107412;28;1215;-68
2021/08/22 09:39:38;;;;;;;;;;;;;;;25.80;69.94;101370.63;5088457;28;1733;-68
2021/08/22 09:42:26;;;;;;;;;;;;;;;25.72;72.45;101367.69;5068778;28;1986;-68
2021/08/22 09:45:12;;;;;;;;;;;;;;;25.73;71.69;101364.06;5087228;28;1047;-66
2021/08/22 09:48:05;;;;;;;;;;;;;;;25.73;71.46;101366.72;5087681;28;736;-67
2021/08/22 09:50:53;;;;;;;;;;;;;;;25.68;72.09;101364.44;5072311;28;1360;-67
2021/08/22 09:53:36;;;;;;;;;;;;;;;25.72;72.01;101362.34;5087480;28;1049;-67
2021/08/22 09:56:13;;;;;;;;;;;;;;;25.69;72.00;101363.44;5087369;28;1263;-67
2021/08/22 09:59:05;;;;;;;;;;;;;;;25.69;71.13;101362.59;5087342;28;1055;-67
2021/08/22 10:01:44;;;;;;;;;;;;;;;25.67;73.10;101361.84;5087139;28;1926;-67
2021/08/22 10:04:13;;;;;;;;;;;;;;;25.65;72.54;101363.81;5087500;28;1142;-67
2021/08/22 10:07:00;;;;;;;;;;;;;;;25.67;72.05;101360.03;5086925;28;1266;-67
2021/08/22 10:09:37;;;;;;;;;;;;;;;25.75;70.27;101368.31;5086729;28;1162;-67
2021/08/22 10:12:04;;;;;;;;;;;;;;;25.67;72.31;101364.53;5068613;28;1356;-67
2021/08/22 10:14:31;;;;;;;;;;;;;;;25.66;72.45;101366.34;5087108;28;1069;-66
2021/08/22 10:17:06;;;;;;;;;;;;;;;25.63;72.21;101361.25;5090288;28;1267;-66
2021/08/22 10:19:49;;;;;;;;;;;;;;;25.66;72.52;101357.47;5106631;28;1342;-66
2021/08/22 10:22:19;;;;;;;;;;;;;;;25.71;72.47;101358.84;5090709;28;1918;-67
2021/08/22 10:24:54;;;;;;;;;;;;;;;25.66;72.42;101365.47;5090881;28;1161;-66
2021/08/22 10:27:30;;;;;;;;;;;;;;;25.59;71.95;101361.59;5072094;28;1291;-66
2021/08/22 10:30:03;;;;;;;;;;;;;;;25.59;72.40;101356.28;5091206;28;919;-66
2021/08/22 10:32:59;;;;;;;;;;;;;;;25.63;72.45;101360.38;5090705;28;1094;-68
2021/08/22 10:35:29;;;;;;;;;;;;;;;25.68;71.57;101361.75;5090368;28;1248;-66
2021/08/22 10:38:15;;;;;;;;;;;;;;;25.63;72.41;101360.38;5090433;28;798;-66
2021/08/22 10:40:43;;;;;;;;;;;;;;;25.64;71.89;101364.75;5098169;28;1471;-66
2021/08/22 10:43:10;;;;;;;;;;;;;;;25.63;71.62;101360.38;5110864;28;1910;-67
2021/08/22 10:45:39;;;;;;;;;;;;;;;25.65;72.19;101353.13;5110910;28;1398;-67
2021/08/22 10:48:30;;;;;;;;;;;;;;;25.54;73.20;101357.47;5110980;28;1061;-67
2021/08/22 10:51:14;;;;;;;;;;;;;;;25.64;72.65;101354.94;5110708;27;1784;-66
2021/08/22 10:53:47;;;;;;;;;;;;;;;25.61;72.42;101351.66;5110926;28;1143;-67
2021/08/22 10:56:23;;;;;;;;;;;;;;;25.64;72.83;101359.44;5110587;28;1369;-67
2021/08/22 10:59:01;;;;;;;;;;;;;;;25.65;71.91;101363.81;5110573;28;1169;-65
2021/08/22 11:01:29;;;;;;;;;;;;;;;25.67;72.57;101359.19;5110281;28;1918;-66
2021/08/22 11:04:16;;;;;;;;;;;;;;;25.68;72.76;101360.91;5110639;28;920;-66
2021/08/22 11:06:53;;;;;;;;;;;;;;;25.66;72.20;101368.16;5110024;28;1248;-66
2021/08/22 11:09:35;;;;;;;;;;;;;;;25.70;72.46;101356.28;5091441;28;1375;-66
2021/08/22 11:12:02;;;;;;;;;;;;;;;25.62;73.30;101362.22;5126315;27;1231;-66
2021/08/22 11:14:29;;;;;;;;;;;;;;;25.66;72.34;101358.34;5110767;28;1126;-66
2021/08/22 11:16:57;;;;;;;;;;;;;;;25.71;72.48;101358.00;5109802;28;1378;-66
2021/08/22 11:19:29;;;;;;;;;;;;;;;25.65;72.81;101364.66;5110479;28;1090;-66
2021/08/22 11:21:56;;;;;;;;;;;;;;;25.68;72.75;101355.56;5110479;28;1983;-66
2021/08/22 11:24:23;;;;;;;;;;;;;;;25.68;72.76;101355.56;5109931;28;1177;-66
2021/08/22 11:26:59;;;;;;;;;;;;;;;25.71;73.13;101355.34;5108567;28;1232;-66
2021/08/22 11:29:31;;;;;;;;;;;;;;;25.70;72.17;101348.28;5091147;28;1391;-67
2021/08/22 11:32:16;;;;;;;;;;;;;;;25.73;72.81;101356.06;5109447;28;1235;-67
2021/08/22 11:34:43;;;;;;;;;;;;;;;25.71;73.40;101355.34;5109896;28;1131;-67
2021/08/22 11:37:14;;;;;;;;;;;;;;;25.73;72.64;101358.72;5109589;28;1216;-66
2021/08/22 11:39:50;;;;;;;;;;;;;;;25.77;72.54;101362.88;5109076;28;1521;-66
2021/08/22 11:42:19;;;;;;;;;;;;;;;25.77;72.80;101354.84;5124731;27;1984;-66
2021/08/22 11:44:47;;;;;;;;;;;;;;;26.21;70.40;101352.25;5109847;28;1113;-62
2021/08/22 11:47:14;;;;;;;;;;;;;;;25.92;72.97;101356.34;5108691;28;1427;-57
2021/08/22 11:49:45;;;;;;;;;;;;;;;25.77;74.12;101352.19;5108790;28;1450;-53
2021/08/22 11:52:12;;;;;;;;;;;;;;;25.72;74.83;101357.88;5108849;28;1369;-57
2021/08/22 11:54:40;;;;;;;;;;;;;;;25.70;75.32;101359.81;5107805;28;1553;-59
2021/08/22 11:57:21;;;;;;;;;;;;;;;25.72;74.91;101349.00;5109120;28;1152;-53
2021/08/22 12:00:03;;;;;;;;;;;;;;;25.73;66.44;101346.22;5100243;28;921;-56
2021/08/22 12:02:54;;;;;;;;;;;;;;;25.51;67.69;101344.34;5105798;28;1978;-55
2021/08/22 12:05:27;;;;;;;;;;;;;;;25.23;68.48;101349.22;5090234;28;1583;-53
2021/08/22 12:08:10;;;;;;;;;;;;;;;25.07;66.73;101344.16;5109106;28;841;-56
2021/08/22 12:10:38;;;;;;;;;;;;;;;24.99;67.41;101349.19;5108825;28;1370;-58
2021/08/22 12:13:14;;;;;;;;;;;;;;;24.89;69.47;101346.38;5108188;28;1320;-56
2021/08/22 12:15:42;;;;;;;;;;;;;;;24.86;68.78;101346.59;5107495;28;1381;-55
2021/08/22 12:18:28;;;;;;;;;;;;;;;24.80;69.10;101344.34;5108139;28;1248;-57
2021/08/22 12:21:01;;;;;;;;;;;;;;;24.65;68.85;101345.47;5108785;28;1218;-54
2021/08/22 12:23:32;;;;;;;;;;;;;;;24.81;68.31;101340.75;5090316;28;1918;-60
2021/08/22 12:26:18;;;;;;;;;;;;;;;24.81;66.62;101342.53;5107631;28;1320;-59
2021/08/22 12:28:45;;;;;;;;;;;;;;;24.55;69.47;101347.09;5088289;28;1458;-61
2021/08/22 12:31:13;;;;;;;;;;;;;;;24.57;69.79;101344.28;5089342;28;1536;-62
2021/08/22 12:33:41;;;;;;;;;;;;;;;24.46;69.34;101345.94;5107754;28;1264;-62
2021/08/22 12:36:11;;;;;;;;;;;;;;;24.71;66.23;101349.50;5089530;28;1361;-64
2021/08/22 12:38:52;;;;;;;;;;;;;;;24.73;66.53;101353.75;5103914;28;1229;-61
2021/08/22 12:41:45;;;;;;;;;;;;;;;24.70;69.58;101353.97;5080751;28;1645;-63
2021/08/22 12:44:19;;;;;;;;;;;;;;;24.79;69.11;101360.44;5076939;28;1985;-62
2021/08/22 12:46:49;;;;;;;;;;;;;;;24.84;71.53;101352.97;5077696;28;1515;-62
2021/08/22 12:49:17;;;;;;;;;;;;;;;24.93;67.10;101357.63;5077281;28;1525;-60
2021/08/22 12:51:53;;;;;;;;;;;;;;;25.15;71.12;101362.22;5087060;28;1296;-63
2021/08/22 12:54:21;;;;;;;;;;;;;;;24.99;72.66;101351.84;5085590;28;1450;-62
2021/08/22 12:56:48;;;;;;;;;;;;;;;24.95;72.90;101355.72;5086925;28;1295;-63
2021/08/22 12:59:15;;;;;;;;;;;;;;;24.90;73.01;101352.53;5085364;28;1257;-61
2021/08/22 13:01:44;;;;;;;;;;;;;;;24.95;69.42;101353.06;5087314;28;1267;-62
2021/08/22 13:04:11;;;;;;;;;;;;;;;25.04;72.02;101355.06;5087366;28;1906;-61